createdAt,value
2022-09-14T00:01:27.064Z,12.60
2022-09-14T00:04:06.184Z,12.60
2022-09-14T00:06:33.688Z,12.60
2022-09-14T00:09:01.231Z,12.50
2022-09-14T00:11:30.589Z,12.50
2022-09-14T00:13:58.936Z,12.50
2022-09-14T00:16:39.088Z,12.50
2022-09-14T00:19:24.115Z,12.50
2022-09-14T00:21:55.700Z,12.50
2022-09-14T00:24:24.196Z,12.50
2022-09-14T00:26:51.589Z,12.50
2022-09-14T00:29:18.904Z,12.50
2022-09-14T00:31:45.738Z,12.50
2022-09-14T00:34:15.600Z,12.50
2022-09-14T00:36:47.510Z,12.50
2022-09-14T00:39:15.665Z,12.60
2022-09-14T00:41:45.058Z,12.60
2022-09-14T00:44:11.813Z,12.60
2022-09-14T00:46:40.108Z,12.70
2022-09-14T00:49:19.930Z,12.70
2022-09-14T00:51:59.070Z,12.70
2022-09-14T00:54:26.528Z,12.80
2022-09-14T00:56:54.798Z,12.80
2022-09-14T00:59:30.082Z,12.80
2022-09-14T01:01:57.096Z,12.80
2022-09-14T01:04:24.201Z,12.90
2022-09-14T01:07:12.992Z,12.90
2022-09-14T01:09:45.227Z,12.90
2022-09-14T01:12:42.972Z,12.80
2022-09-14T01:15:20.350Z,12.80
2022-09-14T01:17:56.060Z,12.80
2022-09-14T01:20:28.400Z,12.70
2022-09-14T01:23:22.127Z,12.70
2022-09-14T01:26:07.464Z,12.60
2022-09-14T01:29:11.664Z,12.70
2022-09-14T01:32:14.038Z,12.60
2022-09-14T01:35:15.945Z,12.60
2022-09-14T01:37:46.088Z,12.60
2022-09-14T01:40:32.861Z,12.60
2022-09-14T01:43:06.363Z,12.60
2022-09-14T01:45:34.823Z,12.50
2022-09-14T01:48:06.449Z,12.50
2022-09-14T01:50:44.773Z,12.50
2022-09-14T01:53:25.113Z,12.40
2022-09-14T01:55:58.609Z,12.40
2022-09-14T01:58:35.098Z,12.30
2022-09-14T02:01:04.457Z,12.30
2022-09-14T02:03:40.771Z,12.30
2022-09-14T02:06:25.097Z,12.20
2022-09-14T02:08:53.785Z,12.20
2022-09-14T02:11:20.667Z,12.20
2022-09-14T02:13:47.530Z,12.10
2022-09-14T02:16:14.410Z,12.10
2022-09-14T02:18:43.555Z,12.10
2022-09-14T02:21:18.560Z,12.20
2022-09-14T02:23:46.714Z,12.20
2022-09-14T02:26:13.467Z,12.20
2022-09-14T02:28:40.359Z,12.20
2022-09-14T02:31:31.432Z,12.20
2022-09-14T02:34:10.352Z,12.20
2022-09-14T02:36:55.232Z,12.20
2022-09-14T02:39:25.061Z,12.20
2022-09-14T02:42:07.491Z,12.30
2022-09-14T02:45:12.526Z,12.30
2022-09-14T02:47:59.387Z,12.30
2022-09-14T02:50:33.444Z,12.30
2022-09-14T02:53:12.900Z,12.30
2022-09-14T02:55:46.084Z,12.40
2022-09-14T02:58:14.613Z,12.40
2022-09-14T03:00:44.015Z,12.40
2022-09-14T03:03:12.709Z,12.40
2022-09-14T03:05:40.236Z,12.50
2022-09-14T03:08:07.530Z,12.50
2022-09-14T03:10:34.518Z,12.50
2022-09-14T03:13:01.566Z,12.50
2022-09-14T03:15:29.319Z,12.50
2022-09-14T03:17:56.548Z,12.50
2022-09-14T03:20:27.833Z,12.60
2022-09-14T03:22:55.053Z,12.60
2022-09-14T03:25:24.925Z,12.60
2022-09-14T03:27:53.560Z,12.60
2022-09-14T03:30:21.079Z,12.60
2022-09-14T03:32:48.645Z,12.60
2022-09-14T03:35:16.093Z,12.60
2022-09-14T03:37:44.136Z,12.60
2022-09-14T03:40:15.160Z,12.60
2022-09-14T03:42:49.476Z,12.60
2022-09-14T03:45:17.677Z,12.60
2022-09-14T03:47:44.781Z,12.60
2022-09-14T03:50:13.071Z,12.50
2022-09-14T03:52:40.563Z,12.50
2022-09-14T03:55:09.367Z,12.50
2022-09-14T03:57:36.455Z,12.50
2022-09-14T04:00:05.347Z,12.50
2022-09-14T04:02:32.400Z,12.50
2022-09-14T04:04:59.223Z,12.60
2022-09-14T04:07:26.274Z,12.60
2022-09-14T04:09:53.112Z,12.60
2022-09-14T04:12:19.941Z,12.70
2022-09-14T04:14:46.951Z,12.70
2022-09-14T04:17:13.796Z,12.80
2022-09-14T04:19:42.117Z,12.80
2022-09-14T04:22:09.170Z,12.90
2022-09-14T04:24:36.036Z,12.90
2022-09-14T04:27:02.904Z,13.00
2022-09-14T04:29:30.636Z,13.00
2022-09-14T04:31:58.118Z,13.00
2022-09-14T04:34:25.084Z,13.10
2022-09-14T04:36:52.174Z,13.10
2022-09-14T04:39:18.956Z,13.10
2022-09-14T04:41:45.997Z,13.10
2022-09-14T04:44:13.189Z,13.10
2022-09-14T04:46:46.167Z,13.20
2022-09-14T04:49:15.108Z,13.20
2022-09-14T04:51:41.901Z,13.20
2022-09-14T04:54:13.094Z,13.20
2022-09-14T04:56:40.557Z,13.30
2022-09-14T04:59:07.504Z,13.20
2022-09-14T05:01:40.542Z,13.30
2022-09-14T05:04:09.173Z,13.30
2022-09-14T05:06:39.126Z,13.30
2022-09-14T05:09:09.945Z,13.40
2022-09-14T05:11:37.574Z,13.40
2022-09-14T05:14:04.684Z,13.30
2022-09-14T05:16:35.358Z,13.40
2022-09-14T05:19:05.253Z,13.40
2022-09-14T05:21:34.932Z,13.40
2022-09-14T05:24:08.249Z,13.40
2022-09-14T05:26:35.413Z,13.40
2022-09-14T05:29:02.925Z,13.40
2022-09-14T05:31:31.846Z,13.40
2022-09-14T05:33:59.674Z,13.40
2022-09-14T05:36:26.752Z,13.40
2022-09-14T05:38:53.513Z,13.40
2022-09-14T05:41:20.409Z,13.40
2022-09-14T05:43:47.358Z,13.40
2022-09-14T05:46:20.268Z,13.40
2022-09-14T05:48:47.740Z,13.40
2022-09-14T05:51:17.455Z,13.40
2022-09-14T05:53:55.032Z,13.50
2022-09-14T05:56:23.846Z,13.50
2022-09-14T05:58:51.551Z,13.50
2022-09-14T06:01:23.703Z,13.50
2022-09-14T06:03:53.634Z,13.60
2022-09-14T06:06:21.215Z,13.60
2022-09-14T06:08:52.346Z,13.60
2022-09-14T06:11:22.126Z,13.60
2022-09-14T06:13:49.888Z,13.70
2022-09-14T06:16:19.151Z,13.70
2022-09-14T06:18:46.956Z,13.70
2022-09-14T06:21:16.701Z,13.80
2022-09-14T06:23:44.088Z,13.80
2022-09-14T06:26:11.611Z,13.90
2022-09-14T06:28:39.376Z,13.90
2022-09-14T06:31:07.792Z,14.00
2022-09-14T06:33:35.559Z,14.10
2022-09-14T06:36:05.149Z,14.10
2022-09-14T06:38:32.793Z,14.20
2022-09-14T06:41:02.684Z,14.30
2022-09-14T06:43:33.188Z,14.30
2022-09-14T06:46:06.057Z,14.40
2022-09-14T06:48:37.099Z,14.40
2022-09-14T06:51:29.012Z,14.50
2022-09-14T06:54:05.992Z,14.60
2022-09-14T06:56:35.970Z,14.60
2022-09-14T06:59:04.041Z,14.60
2022-09-14T07:01:31.334Z,14.70
2022-09-14T07:04:00.910Z,14.80
2022-09-14T07:06:33.528Z,14.90
2022-09-14T07:09:04.004Z,15.10
2022-09-14T07:11:31.558Z,15.20
2022-09-14T07:13:59.080Z,15.30
2022-09-14T07:16:27.712Z,15.40
2022-09-14T07:18:56.195Z,15.50
2022-09-14T07:21:23.833Z,15.60
2022-09-14T07:23:51.017Z,15.70
2022-09-14T07:26:39.471Z,15.70
2022-09-14T07:29:08.148Z,15.80
2022-09-14T07:31:55.164Z,16.00
2022-09-14T07:34:23.891Z,16.10
2022-09-14T07:36:50.963Z,16.20
2022-09-14T07:39:18.458Z,16.40
2022-09-14T07:41:45.634Z,16.60
2022-09-14T07:44:17.092Z,16.80
2022-09-14T07:46:45.469Z,17.20
2022-09-14T07:49:13.867Z,17.40
2022-09-14T07:51:41.065Z,17.70
2022-09-14T07:54:11.335Z,17.80
2022-09-14T07:56:38.405Z,18.00
2022-09-14T08:01:52.580Z,18.20
2022-09-14T08:04:19.539Z,18.40
2022-09-14T08:06:46.710Z,18.40
2022-09-14T08:09:14.313Z,18.60
2022-09-14T08:11:41.128Z,18.70
2022-09-14T08:14:10.228Z,18.80
2022-09-14T08:16:38.875Z,18.90
2022-09-14T08:19:08.015Z,19.00
2022-09-14T08:21:35.716Z,19.10
2022-09-14T08:24:04.370Z,19.30
2022-09-14T08:26:31.756Z,19.40
2022-09-14T08:29:02.065Z,19.50
2022-09-14T08:31:29.267Z,19.70
2022-09-14T08:34:01.195Z,19.80
2022-09-14T08:36:31.407Z,19.90
2022-09-14T08:38:58.783Z,20.10
2022-09-14T08:41:30.113Z,20.20
2022-09-14T08:44:11.438Z,20.30
2022-09-14T08:47:01.904Z,20.30
2022-09-14T08:49:48.952Z,20.20
2022-09-14T08:52:27.103Z,20.20
2022-09-14T08:54:57.016Z,20.10
2022-09-14T08:57:29.827Z,20.10
2022-09-14T09:00:18.566Z,20.10
2022-09-14T09:03:18.909Z,20.10
2022-09-14T09:05:52.003Z,20.10
2022-09-14T09:08:35.392Z,20.10
2022-09-14T09:11:05.618Z,20.20
2022-09-14T09:13:36.735Z,20.50
2022-09-14T09:16:07.554Z,20.90
2022-09-14T09:18:56.408Z,21.30
2022-09-14T09:21:28.678Z,22.00
2022-09-14T09:24:04.795Z,22.90
2022-09-14T09:26:32.938Z,23.60
2022-09-14T09:29:02.563Z,24.00
2022-09-14T09:31:37.738Z,24.20
2022-09-14T09:34:05.111Z,24.20
2022-09-14T09:36:36.516Z,24.20
2022-09-14T09:39:05.536Z,24.20
2022-09-14T09:41:43.571Z,24.40
2022-09-14T09:44:10.780Z,25.00
2022-09-14T09:46:50.724Z,25.90
2022-09-14T09:49:22.378Z,26.50
2022-09-14T09:51:50.387Z,26.60
2022-09-14T09:54:23.353Z,26.30
2022-09-14T09:57:23.889Z,25.70
2022-09-14T09:59:50.717Z,25.10
2022-09-14T10:02:28.661Z,24.70
2022-09-14T10:05:10.441Z,24.40
2022-09-14T10:07:44.549Z,24.00
2022-09-14T10:10:14.743Z,23.60
2022-09-14T10:12:50.978Z,23.40
2022-09-14T10:15:22.182Z,23.20
2022-09-14T10:18:16.390Z,23.10
2022-09-14T10:20:53.760Z,23.00
2022-09-14T10:23:20.635Z,22.70
2022-09-14T10:25:52.934Z,22.50
2022-09-14T10:28:31.090Z,22.20
2022-09-14T10:31:20.394Z,21.90
2022-09-14T10:33:54.374Z,21.80
2022-09-14T10:36:36.116Z,21.80
2022-09-14T10:39:32.887Z,22.10
2022-09-14T10:42:38.309Z,22.70
2022-09-14T10:45:19.617Z,23.00
2022-09-14T10:48:06.322Z,23.20
2022-09-14T10:50:41.227Z,23.40
2022-09-14T10:53:50.116Z,23.70
2022-09-14T10:56:24.517Z,24.30
2022-09-14T10:58:54.191Z,25.30
2022-09-14T11:01:21.151Z,26.60
2022-09-14T11:04:03.220Z,28.10
2022-09-14T11:07:14.403Z,29.40
2022-09-14T11:10:01.912Z,30.30
2022-09-14T11:12:51.483Z,30.30
2022-09-14T11:15:48.448Z,29.90
2022-09-14T11:18:34.038Z,29.40
2022-09-14T11:21:09.537Z,28.70
2022-09-14T11:24:00.208Z,28.00
2022-09-14T11:26:44.975Z,27.50
2022-09-14T11:29:30.207Z,27.20
2022-09-14T11:32:21.979Z,27.00
2022-09-14T11:34:58.364Z,26.90
2022-09-14T11:37:34.612Z,26.60
2022-09-14T11:40:10.230Z,26.50
2022-09-14T11:42:47.560Z,26.40
2022-09-14T11:45:23.685Z,26.30
2022-09-14T11:48:00.016Z,25.90
2022-09-14T11:50:30.991Z,25.50
2022-09-14T11:53:09.561Z,25.10
2022-09-14T11:55:37.327Z,24.70
2022-09-14T11:58:07.083Z,24.30
2022-09-14T12:00:58.586Z,24.00
2022-09-14T12:03:52.128Z,23.70
2022-09-14T12:06:31.891Z,23.50
2022-09-14T12:09:17.210Z,23.40
2022-09-14T12:11:45.296Z,23.30
2022-09-14T12:14:30.251Z,23.20
2022-09-14T12:17:35.339Z,23.20
2022-09-14T12:20:37.511Z,23.10
2022-09-14T12:23:15.203Z,23.00
2022-09-14T12:25:53.338Z,22.80
2022-09-14T12:28:40.116Z,22.70
2022-09-14T12:31:28.587Z,22.60
2022-09-14T12:34:14.370Z,22.40
2022-09-14T12:36:41.108Z,22.30
2022-09-14T12:39:23.643Z,22.30
2022-09-14T12:41:50.351Z,22.30
2022-09-14T12:44:36.948Z,22.30
2022-09-14T12:47:25.695Z,23.10
2022-09-14T12:49:54.998Z,24.80
2022-09-14T12:52:40.578Z,26.50
2022-09-14T12:55:07.785Z,28.10
2022-09-14T12:57:49.346Z,29.40
2022-09-14T13:00:20.047Z,30.70
2022-09-14T13:02:59.087Z,32.00
2022-09-14T13:05:29.202Z,33.10
2022-09-14T13:07:56.700Z,33.90
2022-09-14T13:10:38.029Z,34.70
2022-09-14T13:13:20.593Z,35.30
2022-09-14T13:15:55.557Z,35.10
2022-09-14T13:18:22.337Z,34.40
2022-09-14T13:20:58.050Z,33.50
2022-09-14T13:23:39.511Z,32.80
2022-09-14T13:26:16.818Z,32.20
2022-09-14T13:28:46.393Z,31.80
2022-09-14T13:31:18.444Z,31.40
2022-09-14T13:33:53.096Z,30.80
2022-09-14T13:36:23.957Z,30.20
2022-09-14T13:38:52.011Z,29.50
2022-09-14T13:41:24.710Z,29.00
2022-09-14T13:43:54.796Z,28.40
2022-09-14T13:46:26.448Z,27.80
2022-09-14T13:48:54.113Z,27.30
2022-09-14T13:51:26.652Z,26.80
2022-09-14T13:53:55.785Z,26.40
2022-09-14T13:56:34.617Z,26.00
2022-09-14T13:59:07.362Z,25.90
2022-09-14T14:01:40.382Z,26.30
2022-09-14T14:04:29.580Z,27.20
2022-09-14T14:07:24.652Z,28.50
2022-09-14T14:09:57.371Z,29.80
2022-09-14T14:12:33.944Z,30.50
2022-09-14T14:15:22.286Z,30.70
2022-09-14T14:17:49.110Z,30.40
2022-09-14T14:20:32.697Z,29.70
2022-09-14T14:23:08.051Z,28.90
2022-09-14T14:25:45.824Z,28.00
2022-09-14T14:28:19.305Z,27.10
2022-09-14T14:30:46.234Z,26.30
2022-09-14T14:33:14.772Z,25.70
2022-09-14T14:35:42.171Z,25.10
2022-09-14T14:38:09.853Z,24.50
2022-09-14T14:40:37.896Z,24.00
2022-09-14T14:43:05.431Z,23.70
2022-09-14T14:45:36.217Z,23.50
2022-09-14T14:48:04.190Z,23.40
2022-09-14T14:50:34.314Z,23.20
2022-09-14T14:53:02.139Z,23.00
2022-09-14T14:55:32.539Z,22.80
2022-09-14T14:58:01.741Z,22.60
2022-09-14T15:00:32.247Z,22.50
2022-09-14T15:02:59.273Z,22.30
2022-09-14T15:05:26.757Z,22.20
2022-09-14T15:07:53.801Z,22.10
2022-09-14T15:10:23.045Z,22.00
2022-09-14T15:12:49.933Z,21.90
2022-09-14T15:15:20.948Z,21.80
2022-09-14T15:17:47.784Z,21.60
2022-09-14T15:20:14.608Z,21.40
2022-09-14T15:22:42.451Z,21.30
2022-09-14T15:25:10.960Z,21.20
2022-09-14T15:27:38.048Z,21.10
2022-09-14T15:30:06.201Z,21.10
2022-09-14T15:32:33.170Z,21.10
2022-09-14T15:35:00.118Z,21.10
2022-09-14T15:37:27.285Z,21.00
2022-09-14T15:39:54.184Z,21.00
2022-09-14T15:42:21.105Z,20.90
2022-09-14T15:44:47.960Z,20.90
2022-09-14T15:47:15.579Z,20.80
2022-09-14T15:49:43.069Z,20.70
2022-09-14T15:52:11.214Z,20.60
2022-09-14T15:54:38.935Z,20.60
2022-09-14T15:57:08.941Z,20.50
2022-09-14T15:59:36.083Z,20.50
2022-09-14T16:02:03.318Z,20.40
2022-09-14T16:04:38.339Z,20.30
2022-09-14T16:07:09.688Z,20.20
2022-09-14T16:09:38.732Z,20.10
2022-09-14T16:12:06.926Z,20.00
2022-09-14T16:14:34.345Z,19.90
2022-09-14T16:17:01.271Z,19.90
2022-09-14T16:19:28.305Z,19.80
2022-09-14T16:21:55.898Z,19.80
2022-09-14T16:24:24.334Z,19.70
2022-09-14T16:26:51.519Z,19.60
2022-09-14T16:29:20.203Z,19.60
2022-09-14T16:31:48.657Z,19.50
2022-09-14T16:34:27.289Z,19.40
2022-09-14T16:36:55.320Z,19.40
2022-09-14T16:39:26.775Z,19.30
2022-09-14T16:41:56.426Z,19.20
2022-09-14T16:44:25.712Z,19.20
2022-09-14T16:46:53.775Z,19.10
2022-09-14T16:49:24.986Z,19.00
2022-09-14T16:51:54.616Z,18.90
2022-09-14T16:54:23.166Z,18.80
2022-09-14T16:56:50.752Z,18.80
2022-09-14T16:59:18.015Z,18.70
2022-09-14T17:01:49.668Z,18.60
2022-09-14T17:04:23.298Z,18.60
2022-09-14T17:06:51.684Z,18.50
2022-09-14T17:09:21.687Z,18.40
2022-09-14T17:11:48.845Z,18.40
2022-09-14T17:14:18.318Z,18.30
2022-09-14T17:16:45.793Z,18.30
2022-09-14T17:19:12.999Z,18.20
2022-09-14T17:21:41.640Z,18.10
2022-09-14T17:24:12.440Z,18.10
2022-09-14T17:26:39.479Z,18.00
2022-09-14T17:29:07.000Z,17.90
2022-09-14T17:31:36.783Z,17.80
2022-09-14T17:34:05.457Z,17.70
2022-09-14T17:36:32.775Z,17.60
2022-09-14T17:39:02.411Z,17.50
2022-09-14T17:41:31.557Z,17.40
2022-09-14T17:44:01.276Z,17.30
2022-09-14T17:46:28.952Z,17.30
2022-09-14T17:48:58.509Z,17.10
2022-09-14T17:51:27.248Z,17.10
2022-09-14T17:53:56.385Z,17.00
2022-09-14T17:56:25.875Z,17.00
2022-09-14T17:59:08.452Z,17.00
2022-09-14T18:01:35.330Z,17.00
2022-09-14T18:04:05.504Z,17.00
2022-09-14T18:06:38.468Z,17.00
2022-09-14T18:09:08.855Z,16.90
2022-09-14T18:11:36.551Z,16.90
2022-09-14T18:14:04.780Z,16.90
2022-09-14T18:16:32.581Z,16.90
2022-09-14T18:18:59.937Z,16.90
2022-09-14T18:21:26.830Z,16.80
2022-09-14T18:23:54.906Z,16.80
2022-09-14T18:26:22.979Z,16.80
2022-09-14T18:28:53.475Z,16.70
2022-09-14T18:31:20.413Z,16.70
2022-09-14T18:33:52.264Z,16.60
2022-09-14T18:36:20.216Z,16.60
2022-09-14T18:38:48.580Z,16.50
2022-09-14T18:41:16.804Z,16.50
2022-09-14T18:43:45.769Z,16.40
2022-09-14T18:46:13.475Z,16.40
2022-09-14T18:48:43.501Z,16.30
2022-09-14T18:51:11.716Z,16.30
2022-09-14T18:53:38.917Z,16.30
2022-09-14T18:56:11.840Z,16.20
2022-09-14T18:58:45.060Z,16.20
2022-09-14T19:01:13.178Z,16.20
2022-09-14T19:03:41.873Z,16.20
2022-09-14T19:06:12.273Z,16.10
2022-09-14T19:08:39.530Z,16.10
2022-09-14T19:11:17.998Z,16.10
2022-09-14T19:13:45.525Z,16.10
2022-09-14T19:16:21.397Z,16.10
2022-09-14T19:18:49.373Z,16.10
2022-09-14T19:21:22.765Z,16.10
2022-09-14T19:24:06.284Z,16.10
2022-09-14T19:26:45.400Z,16.00
2022-09-14T19:29:14.480Z,15.90
2022-09-14T19:31:41.687Z,15.80
2022-09-14T19:34:10.208Z,15.70
2022-09-14T19:36:36.966Z,15.60
2022-09-14T19:39:04.918Z,15.60
2022-09-14T19:41:33.136Z,15.50
2022-09-14T19:44:00.708Z,15.40
2022-09-14T19:46:28.783Z,15.30
2022-09-14T19:48:55.968Z,15.20
2022-09-14T19:51:25.427Z,15.10
2022-09-14T19:53:54.461Z,15.10
2022-09-14T19:56:25.557Z,15.00
2022-09-14T19:58:54.283Z,14.90
2022-09-14T20:01:22.864Z,14.80
2022-09-14T20:03:50.289Z,14.80
2022-09-14T20:06:21.168Z,14.70
2022-09-14T20:08:49.623Z,14.70
2022-09-14T20:11:20.165Z,14.70
2022-09-14T20:13:50.800Z,14.70
2022-09-14T20:16:21.184Z,14.60
2022-09-14T20:18:49.227Z,14.60
2022-09-14T20:21:19.424Z,14.60
2022-09-14T20:24:11.415Z,14.50
2022-09-14T20:26:33.752Z,14.40
2022-09-14T20:29:01.270Z,14.40
2022-09-14T20:31:29.892Z,14.40
2022-09-14T20:33:57.816Z,14.30
2022-09-14T20:36:25.945Z,14.30
2022-09-14T20:38:55.594Z,14.30
2022-09-14T20:41:34.357Z,14.20
2022-09-14T20:44:01.826Z,14.10
2022-09-14T20:46:31.871Z,14.10
2022-09-14T20:48:59.047Z,14.00
2022-09-14T20:51:26.570Z,14.00
2022-09-14T20:53:53.988Z,13.90
2022-09-14T20:56:23.214Z,13.90
2022-09-14T20:58:53.997Z,13.80
2022-09-14T21:01:25.700Z,13.80
2022-09-14T21:03:52.915Z,13.80
2022-09-14T21:06:22.725Z,13.70
2022-09-14T21:08:49.783Z,13.70
2022-09-14T21:11:22.098Z,13.60
2022-09-14T21:13:49.847Z,13.60
2022-09-14T21:16:22.470Z,13.60
2022-09-14T21:18:54.054Z,13.60
2022-09-14T21:21:20.944Z,13.50
2022-09-14T21:23:50.951Z,13.50
2022-09-14T21:26:19.885Z,13.40
2022-09-14T21:28:47.341Z,13.40
2022-09-14T21:31:19.672Z,13.40
2022-09-14T21:33:49.741Z,13.40
2022-09-14T21:36:22.298Z,13.30
2022-09-14T21:38:53.868Z,13.30
2022-09-14T21:41:22.798Z,13.20
2022-09-14T21:43:50.381Z,13.20
2022-09-14T21:46:18.430Z,13.20
2022-09-14T21:48:45.705Z,13.10
2022-09-14T21:51:18.414Z,13.10
2022-09-14T21:53:57.406Z,13.10
2022-09-14T21:56:26.851Z,13.10
2022-09-14T21:58:56.519Z,13.00
2022-09-14T22:01:24.373Z,13.00
2022-09-14T22:03:52.875Z,13.00
2022-09-14T22:06:22.205Z,13.00
2022-09-14T22:08:50.355Z,13.00
2022-09-14T22:11:23.176Z,12.90
2022-09-14T22:13:55.011Z,12.90
2022-09-14T22:16:23.116Z,12.90
2022-09-14T22:18:55.697Z,12.90
2022-09-14T22:21:24.458Z,12.90
2022-09-14T22:23:53.444Z,12.80
2022-09-14T22:26:21.229Z,12.80
2022-09-14T22:28:49.594Z,12.80
2022-09-14T22:31:18.122Z,12.80
2022-09-14T22:33:45.473Z,12.70
2022-09-14T22:36:13.145Z,12.80
2022-09-14T22:38:41.063Z,12.70
2022-09-14T22:41:11.760Z,12.70
2022-09-14T22:43:39.931Z,12.70
2022-09-14T22:46:07.984Z,12.70
2022-09-14T22:48:35.804Z,12.60
2022-09-14T22:51:03.269Z,12.60
2022-09-14T22:53:30.953Z,12.60
2022-09-14T22:55:57.811Z,12.60
2022-09-14T22:58:26.816Z,12.60
2022-09-14T23:00:54.035Z,12.60
2022-09-14T23:03:20.955Z,12.60
2022-09-14T23:05:52.107Z,12.60
2022-09-14T23:08:20.003Z,12.50
2022-09-14T23:10:47.896Z,12.50
2022-09-14T23:13:16.215Z,12.50
2022-09-14T23:15:43.069Z,12.50
2022-09-14T23:18:10.722Z,12.40
2022-09-14T23:20:39.664Z,12.50
2022-09-14T23:23:07.198Z,12.40
2022-09-14T23:25:35.514Z,12.40
2022-09-14T23:28:03.455Z,12.40
2022-09-14T23:30:31.166Z,12.40
2022-09-14T23:32:58.723Z,12.40
2022-09-14T23:35:27.249Z,12.40
2022-09-14T23:37:54.836Z,12.40
2022-09-14T23:40:22.278Z,12.50
2022-09-14T23:42:49.392Z,12.40
2022-09-14T23:45:16.399Z,12.40
2022-09-14T23:47:43.208Z,12.40
2022-09-14T23:50:10.143Z,12.40
2022-09-14T23:52:37.000Z,12.30
2022-09-14T23:55:04.412Z,12.30
2022-09-14T23:57:31.268Z,12.30
2022-09-14T23:59:58.635Z,12.30
